sensor_id;sensor_type;location;lat;lon;timestamp;P1;durP1;ratioP1;P2;durP2;ratioP2
7899;SDS011;3995;50.856;4.404;2023-04-03T00:00:34;6.63;;;4.20;;
7899;SDS011;3995;50.856;4.404;2023-04-03T00:03:01;5.43;;;4.30;;
7899;SDS011;3995;50.856;4.404;2023-04-03T00:05:28;6.10;;;3.90;;
7899;SDS011;3995;50.856;4.404;2023-04-03T00:07:57;6.25;;;4.10;;
7899;SDS011;3995;50.856;4.404;2023-04-03T00:10:24;5.20;;;4.07;;
7899;SDS011;3995;50.856;4.404;2023-04-03T00:12:52;5.47;;;4.22;;
7899;SDS011;3995;50.856;4.404;2023-04-03T00:15:19;4.13;;;3.67;;
7899;SDS011;3995;50.856;4.404;2023-04-03T00:17:46;7.03;;;3.30;;
7899;SDS011;3995;50.856;4.404;2023-04-03T00:20:13;4.00;;;3.60;;
7899;SDS011;3995;50.856;4.404;2023-04-03T00:22:41;6.57;;;3.88;;
7899;SDS011;3995;50.856;4.404;2023-04-03T00:25:09;7.13;;;4.72;;
7899;SDS011;3995;50.856;4.404;2023-04-03T00:27:36;5.47;;;3.90;;
7899;SDS011;3995;50.856;4.404;2023-04-03T00:30:05;7.43;;;3.65;;
7899;SDS011;3995;50.856;4.404;2023-04-03T00:32:34;5.45;;;3.80;;
7899;SDS011;3995;50.856;4.404;2023-04-03T00:35:01;6.75;;;3.05;;
7899;SDS011;3995;50.856;4.404;2023-04-03T00:37:30;4.35;;;3.47;;
7899;SDS011;3995;50.856;4.404;2023-04-03T00:39:57;6.78;;;3.90;;
7899;SDS011;3995;50.856;4.404;2023-04-03T00:42:26;5.03;;;3.60;;
7899;SDS011;3995;50.856;4.404;2023-04-03T00:47:57;5.60;;;3.72;;
7899;SDS011;3995;50.856;4.404;2023-04-03T00:50:26;5.03;;;3.67;;
7899;SDS011;3995;50.856;4.404;2023-04-03T00:52:55;5.35;;;3.70;;
7899;SDS011;3995;50.856;4.404;2023-04-03T00:55:23;6.00;;;4.28;;
7899;SDS011;3995;50.856;4.404;2023-04-03T00:57:52;7.55;;;3.25;;
7899;SDS011;3995;50.856;4.404;2023-04-03T01:00:21;5.03;;;3.53;;
7899;SDS011;3995;50.856;4.404;2023-04-03T01:02:49;3.92;;;3.40;;
7899;SDS011;3995;50.856;4.404;2023-04-03T01:05:17;5.50;;;3.80;;
7899;SDS011;3995;50.856;4.404;2023-04-03T01:07:47;5.53;;;4.03;;
7899;SDS011;3995;50.856;4.404;2023-04-03T01:10:16;12.48;;;4.30;;
7899;SDS011;3995;50.856;4.404;2023-04-03T01:12:45;4.88;;;4.20;;
7899;SDS011;3995;50.856;4.404;2023-04-03T01:15:16;5.80;;;2.88;;
7899;SDS011;3995;50.856;4.404;2023-04-03T01:17:46;3.47;;;3.17;;
7899;SDS011;3995;50.856;4.404;2023-04-03T01:23:25;7.05;;;3.50;;
7899;SDS011;3995;50.856;4.404;2023-04-03T01:26:01;4.05;;;3.22;;
7899;SDS011;3995;50.856;4.404;2023-04-03T01:28:30;4.82;;;3.13;;
7899;SDS011;3995;50.856;4.404;2023-04-03T01:31:06;5.75;;;3.50;;
7899;SDS011;3995;50.856;4.404;2023-04-03T01:33:41;4.40;;;3.60;;
7899;SDS011;3995;50.856;4.404;2023-04-03T01:36:09;7.15;;;3.53;;
7899;SDS011;3995;50.856;4.404;2023-04-03T01:38:40;5.32;;;3.40;;
7899;SDS011;3995;50.856;4.404;2023-04-03T01:41:08;4.32;;;3.20;;
7899;SDS011;3995;50.856;4.404;2023-04-03T01:43:35;4.93;;;3.60;;
7899;SDS011;3995;50.856;4.404;2023-04-03T01:46:02;6.55;;;3.70;;
7899;SDS011;3995;50.856;4.404;2023-04-03T01:48:30;4.38;;;3.55;;
7899;SDS011;3995;50.856;4.404;2023-04-03T01:50:59;5.22;;;3.00;;
7899;SDS011;3995;50.856;4.404;2023-04-03T01:53:26;4.88;;;3.85;;
7899;SDS011;3995;50.856;4.404;2023-04-03T01:55:53;7.05;;;4.00;;
7899;SDS011;3995;50.856;4.404;2023-04-03T01:58:21;4.50;;;3.58;;
7899;SDS011;3995;50.856;4.404;2023-04-03T02:00:48;4.93;;;3.53;;
7899;SDS011;3995;50.856;4.404;2023-04-03T02:03:15;6.85;;;3.90;;
7899;SDS011;3995;50.856;4.404;2023-04-03T02:05:43;4.35;;;3.40;;
7899;SDS011;3995;50.856;4.404;2023-04-03T02:08:12;4.75;;;3.35;;
7899;SDS011;3995;50.856;4.404;2023-04-03T02:10:39;5.47;;;3.65;;
7899;SDS011;3995;50.856;4.404;2023-04-03T02:13:07;5.65;;;3.65;;
7899;SDS011;3995;50.856;4.404;2023-04-03T02:15:37;4.15;;;3.38;;
7899;SDS011;3995;50.856;4.404;2023-04-03T02:18:04;8.15;;;3.72;;
7899;SDS011;3995;50.856;4.404;2023-04-03T02:20:31;5.03;;;3.28;;
7899;SDS011;3995;50.856;4.404;2023-04-03T02:22:58;3.88;;;3.15;;
7899;SDS011;3995;50.856;4.404;2023-04-03T02:25:27;4.30;;;3.47;;
7899;SDS011;3995;50.856;4.404;2023-04-03T02:27:56;4.35;;;3.33;;
7899;SDS011;3995;50.856;4.404;2023-04-03T02:30:23;4.50;;;3.00;;
7899;SDS011;3995;50.856;4.404;2023-04-03T02:32:51;3.90;;;3.13;;
7899;SDS011;3995;50.856;4.404;2023-04-03T02:35:19;5.13;;;3.35;;
7899;SDS011;3995;50.856;4.404;2023-04-03T02:37:46;8.13;;;3.90;;
7899;SDS011;3995;50.856;4.404;2023-04-03T02:40:13;6.55;;;3.47;;
7899;SDS011;3995;50.856;4.404;2023-04-03T02:42:43;4.82;;;3.17;;
7899;SDS011;3995;50.856;4.404;2023-04-03T02:45:10;4.80;;;3.35;;
7899;SDS011;3995;50.856;4.404;2023-04-03T02:47:37;5.75;;;3.92;;
7899;SDS011;3995;50.856;4.404;2023-04-03T02:50:04;3.75;;;3.22;;
7899;SDS011;3995;50.856;4.404;2023-04-03T02:52:32;4.50;;;3.78;;
7899;SDS011;3995;50.856;4.404;2023-04-03T02:54:59;5.43;;;4.10;;
7899;SDS011;3995;50.856;4.404;2023-04-03T02:57:26;3.67;;;3.20;;
7899;SDS011;3995;50.856;4.404;2023-04-03T02:59:55;6.57;;;3.50;;
7899;SDS011;3995;50.856;4.404;2023-04-03T03:02:23;5.80;;;3.95;;
7899;SDS011;3995;50.856;4.404;2023-04-03T03:04:50;3.83;;;3.40;;
7899;SDS011;3995;50.856;4.404;2023-04-03T03:07:17;4.00;;;3.60;;
7899;SDS011;3995;50.856;4.404;2023-04-03T03:09:44;7.25;;;3.20;;
7899;SDS011;3995;50.856;4.404;2023-04-03T03:12:12;3.95;;;3.58;;
7899;SDS011;3995;50.856;4.404;2023-04-03T03:14:39;4.78;;;3.72;;
7899;SDS011;3995;50.856;4.404;2023-04-03T03:17:09;9.13;;;3.80;;
7899;SDS011;3995;50.856;4.404;2023-04-03T03:19:36;7.07;;;3.70;;
7899;SDS011;3995;50.856;4.404;2023-04-03T03:22:03;5.15;;;3.60;;
7899;SDS011;3995;50.856;4.404;2023-04-03T03:24:31;3.83;;;3.42;;
7899;SDS011;3995;50.856;4.404;2023-04-03T03:26:58;6.05;;;4.20;;
7899;SDS011;3995;50.856;4.404;2023-04-03T03:29:26;4.78;;;3.60;;
7899;SDS011;3995;50.856;4.404;2023-04-03T03:31:53;4.40;;;3.13;;
7899;SDS011;3995;50.856;4.404;2023-04-03T03:34:21;7.47;;;3.50;;
7899;SDS011;3995;50.856;4.404;2023-04-03T03:36:48;4.88;;;3.80;;
7899;SDS011;3995;50.856;4.404;2023-04-03T03:39:15;4.82;;;3.70;;
7899;SDS011;3995;50.856;4.404;2023-04-03T03:41:42;3.92;;;3.15;;
7899;SDS011;3995;50.856;4.404;2023-04-03T03:44:10;5.47;;;3.58;;
7899;SDS011;3995;50.856;4.404;2023-04-03T03:46:37;5.47;;;3.90;;
7899;SDS011;3995;50.856;4.404;2023-04-03T03:49:04;4.47;;;3.08;;
7899;SDS011;3995;50.856;4.404;2023-04-03T03:51:33;4.28;;;3.17;;
7899;SDS011;3995;50.856;4.404;2023-04-03T03:54:00;3.70;;;3.40;;
7899;SDS011;3995;50.856;4.404;2023-04-03T03:56:27;5.57;;;3.75;;
7899;SDS011;3995;50.856;4.404;2023-04-03T03:58:55;5.07;;;3.90;;
7899;SDS011;3995;50.856;4.404;2023-04-03T04:01:22;6.15;;;3.80;;
7899;SDS011;3995;50.856;4.404;2023-04-03T04:03:50;5.10;;;4.28;;
7899;SDS011;3995;50.856;4.404;2023-04-03T04:06:19;7.30;;;3.40;;
7899;SDS011;3995;50.856;4.404;2023-04-03T04:08:47;4.78;;;3.30;;
7899;SDS011;3995;50.856;4.404;2023-04-03T04:11:14;5.40;;;3.75;;
7899;SDS011;3995;50.856;4.404;2023-04-03T04:13:42;6.05;;;3.88;;
7899;SDS011;3995;50.856;4.404;2023-04-03T04:16:09;4.20;;;3.65;;
7899;SDS011;3995;50.856;4.404;2023-04-03T04:18:36;4.28;;;3.65;;
7899;SDS011;3995;50.856;4.404;2023-04-03T04:21:03;4.05;;;3.75;;
7899;SDS011;3995;50.856;4.404;2023-04-03T04:23:30;5.32;;;3.88;;
7899;SDS011;3995;50.856;4.404;2023-04-03T04:25:59;5.72;;;3.72;;
7899;SDS011;3995;50.856;4.404;2023-04-03T04:28:26;6.55;;;4.30;;
7899;SDS011;3995;50.856;4.404;2023-04-03T04:30:53;6.20;;;4.10;;
7899;SDS011;3995;50.856;4.404;2023-04-03T04:33:20;8.55;;;3.60;;
7899;SDS011;3995;50.856;4.404;2023-04-03T04:35:47;5.80;;;4.15;;
7899;SDS011;3995;50.856;4.404;2023-04-03T04:38:15;4.32;;;3.63;;
7899;SDS011;3995;50.856;4.404;2023-04-03T04:40:42;4.85;;;3.70;;
7899;SDS011;3995;50.856;4.404;2023-04-03T04:43:11;7.93;;;4.10;;
7899;SDS011;3995;50.856;4.404;2023-04-03T04:45:39;3.92;;;3.53;;
7899;SDS011;3995;50.856;4.404;2023-04-03T04:48:07;9.60;;;4.30;;
7899;SDS011;3995;50.856;4.404;2023-04-03T04:50:34;5.10;;;4.05;;
7899;SDS011;3995;50.856;4.404;2023-04-03T04:53:02;5.30;;;3.95;;
7899;SDS011;3995;50.856;4.404;2023-04-03T04:55:29;4.45;;;4.05;;
7899;SDS011;3995;50.856;4.404;2023-04-03T04:57:56;4.72;;;4.22;;
7899;SDS011;3995;50.856;4.404;2023-04-03T05:00:25;5.22;;;4.38;;
7899;SDS011;3995;50.856;4.404;2023-04-03T05:02:52;5.25;;;4.75;;
7899;SDS011;3995;50.856;4.404;2023-04-03T05:05:19;4.65;;;4.05;;
7899;SDS011;3995;50.856;4.404;2023-04-03T05:07:47;4.90;;;4.40;;
7899;SDS011;3995;50.856;4.404;2023-04-03T05:10:14;5.93;;;4.28;;
7899;SDS011;3995;50.856;4.404;2023-04-03T05:12:41;5.35;;;4.00;;
7899;SDS011;3995;50.856;4.404;2023-04-03T05:15:09;8.13;;;4.80;;
7899;SDS011;3995;50.856;4.404;2023-04-03T05:17:41;7.07;;;4.70;;
7899;SDS011;3995;50.856;4.404;2023-04-03T05:20:08;7.30;;;4.95;;
7899;SDS011;3995;50.856;4.404;2023-04-03T05:22:36;6.65;;;5.13;;
7899;SDS011;3995;50.856;4.404;2023-04-03T05:25:03;6.63;;;5.20;;
7899;SDS011;3995;50.856;4.404;2023-04-03T05:27:32;6.55;;;5.15;;
7899;SDS011;3995;50.856;4.404;2023-04-03T05:30:03;5.57;;;4.45;;
7899;SDS011;3995;50.856;4.404;2023-04-03T05:32:32;8.90;;;4.60;;
7899;SDS011;3995;50.856;4.404;2023-04-03T05:35:01;22.30;;;5.30;;
7899;SDS011;3995;50.856;4.404;2023-04-03T05:37:28;6.82;;;4.90;;
7899;SDS011;3995;50.856;4.404;2023-04-03T05:39:55;8.27;;;5.22;;
7899;SDS011;3995;50.856;4.404;2023-04-03T05:42:21;7.50;;;5.03;;
7899;SDS011;3995;50.856;4.404;2023-04-03T05:44:49;7.30;;;4.53;;
7899;SDS011;3995;50.856;4.404;2023-04-03T05:47:16;8.52;;;4.72;;
7899;SDS011;3995;50.856;4.404;2023-04-03T05:49:44;8.32;;;5.55;;
7899;SDS011;3995;50.856;4.404;2023-04-03T05:52:17;14.35;;;8.48;;
7899;SDS011;3995;50.856;4.404;2023-04-03T05:54:47;5.80;;;4.75;;
7899;SDS011;3995;50.856;4.404;2023-04-03T05:57:20;15.07;;;5.30;;
7899;SDS011;3995;50.856;4.404;2023-04-03T05:59:52;7.05;;;4.68;;
7899;SDS011;3995;50.856;4.404;2023-04-03T06:02:20;8.45;;;5.40;;
7899;SDS011;3995;50.856;4.404;2023-04-03T06:04:49;10.80;;;5.82;;
7899;SDS011;3995;50.856;4.404;2023-04-03T06:07:21;8.60;;;4.60;;
7899;SDS011;3995;50.856;4.404;2023-04-03T06:09:52;10.90;;;5.68;;
7899;SDS011;3995;50.856;4.404;2023-04-03T06:12:20;9.52;;;4.93;;
7899;SDS011;3995;50.856;4.404;2023-04-03T06:14:48;7.20;;;4.72;;
7899;SDS011;3995;50.856;4.404;2023-04-03T06:17:16;9.43;;;5.18;;
7899;SDS011;3995;50.856;4.404;2023-04-03T06:19:43;16.40;;;5.38;;
7899;SDS011;3995;50.856;4.404;2023-04-03T06:22:11;10.60;;;5.85;;
7899;SDS011;3995;50.856;4.404;2023-04-03T06:24:40;16.42;;;4.97;;
7899;SDS011;3995;50.856;4.404;2023-04-03T06:27:09;5.60;;;4.68;;
7899;SDS011;3995;50.856;4.404;2023-04-03T06:29:37;14.35;;;6.63;;
7899;SDS011;3995;50.856;4.404;2023-04-03T06:32:04;12.70;;;5.05;;
7899;SDS011;3995;50.856;4.404;2023-04-03T06:34:32;21.33;;;5.38;;
7899;SDS011;3995;50.856;4.404;2023-04-03T06:37:00;5.28;;;4.20;;
7899;SDS011;3995;50.856;4.404;2023-04-03T06:39:27;5.35;;;4.47;;
7899;SDS011;3995;50.856;4.404;2023-04-03T06:41:56;5.28;;;4.70;;
7899;SDS011;3995;50.856;4.404;2023-04-03T06:44:24;8.15;;;4.97;;
7899;SDS011;3995;50.856;4.404;2023-04-03T06:46:51;6.45;;;4.40;;
7899;SDS011;3995;50.856;4.404;2023-04-03T06:49:19;8.88;;;4.47;;
7899;SDS011;3995;50.856;4.404;2023-04-03T06:51:46;10.02;;;5.03;;
7899;SDS011;3995;50.856;4.404;2023-04-03T06:54:13;10.48;;;5.75;;
7899;SDS011;3995;50.856;4.404;2023-04-03T06:56:41;8.90;;;4.70;;
7899;SDS011;3995;50.856;4.404;2023-04-03T06:59:10;10.02;;;4.60;;
7899;SDS011;3995;50.856;4.404;2023-04-03T07:01:39;8.93;;;4.65;;
7899;SDS011;3995;50.856;4.404;2023-04-03T07:04:07;7.07;;;4.45;;
7899;SDS011;3995;50.856;4.404;2023-04-03T07:06:35;13.10;;;5.10;;
7899;SDS011;3995;50.856;4.404;2023-04-03T07:09:02;7.32;;;4.95;;
7899;SDS011;3995;50.856;4.404;2023-04-03T07:11:29;10.82;;;5.00;;
7899;SDS011;3995;50.856;4.404;2023-04-03T07:13:57;6.50;;;4.30;;
7899;SDS011;3995;50.856;4.404;2023-04-03T07:16:26;8.70;;;4.97;;
7899;SDS011;3995;50.856;4.404;2023-04-03T07:18:55;8.38;;;4.68;;
7899;SDS011;3995;50.856;4.404;2023-04-03T07:21:23;6.70;;;4.57;;
7899;SDS011;3995;50.856;4.404;2023-04-03T07:23:51;7.80;;;5.20;;
7899;SDS011;3995;50.856;4.404;2023-04-03T07:26:18;15.50;;;6.57;;
7899;SDS011;3995;50.856;4.404;2023-04-03T07:28:46;7.85;;;4.40;;
7899;SDS011;3995;50.856;4.404;2023-04-03T07:31:14;7.38;;;4.85;;
7899;SDS011;3995;50.856;4.404;2023-04-03T07:33:44;8.77;;;5.20;;
7899;SDS011;3995;50.856;4.404;2023-04-03T07:36:14;6.22;;;4.90;;
7899;SDS011;3995;50.856;4.404;2023-04-03T07:38:42;7.25;;;5.45;;
7899;SDS011;3995;50.856;4.404;2023-04-03T07:41:10;6.82;;;4.95;;
7899;SDS011;3995;50.856;4.404;2023-04-03T07:43:40;11.23;;;5.00;;
7899;SDS011;3995;50.856;4.404;2023-04-03T07:46:07;9.38;;;4.90;;
7899;SDS011;3995;50.856;4.404;2023-04-03T07:48:34;22.60;;;5.35;;
7899;SDS011;3995;50.856;4.404;2023-04-03T07:51:05;9.38;;;4.47;;
7899;SDS011;3995;50.856;4.404;2023-04-03T07:53:32;10.10;;;5.40;;
7899;SDS011;3995;50.856;4.404;2023-04-03T07:56:00;13.80;;;5.13;;
7899;SDS011;3995;50.856;4.404;2023-04-03T07:58:29;7.90;;;4.03;;
7899;SDS011;3995;50.856;4.404;2023-04-03T08:00:56;9.00;;;4.90;;
7899;SDS011;3995;50.856;4.404;2023-04-03T08:03:24;14.82;;;5.60;;
7899;SDS011;3995;50.856;4.404;2023-04-03T08:05:51;5.90;;;4.55;;
7899;SDS011;3995;50.856;4.404;2023-04-03T08:08:20;12.55;;;4.22;;
7899;SDS011;3995;50.856;4.404;2023-04-03T08:10:49;10.05;;;4.70;;
7899;SDS011;3995;50.856;4.404;2023-04-03T08:13:17;10.85;;;4.65;;
7899;SDS011;3995;50.856;4.404;2023-04-03T08:15:46;7.70;;;4.35;;
7899;SDS011;3995;50.856;4.404;2023-04-03T08:18:13;8.50;;;4.97;;
7899;SDS011;3995;50.856;4.404;2023-04-03T08:20:41;8.95;;;4.82;;
7899;SDS011;3995;50.856;4.404;2023-04-03T08:23:09;7.70;;;4.82;;
7899;SDS011;3995;50.856;4.404;2023-04-03T08:25:38;5.57;;;4.63;;
7899;SDS011;3995;50.856;4.404;2023-04-03T08:28:06;7.97;;;5.18;;
7899;SDS011;3995;50.856;4.404;2023-04-03T08:30:34;7.18;;;4.22;;
7899;SDS011;3995;50.856;4.404;2023-04-03T08:33:02;8.90;;;4.68;;
7899;SDS011;3995;50.856;4.404;2023-04-03T08:35:30;7.97;;;4.50;;
7899;SDS011;3995;50.856;4.404;2023-04-03T08:37:57;11.00;;;4.30;;
7899;SDS011;3995;50.856;4.404;2023-04-03T08:40:26;10.02;;;3.63;;
7899;SDS011;3995;50.856;4.404;2023-04-03T08:42:57;6.57;;;3.70;;
7899;SDS011;3995;50.856;4.404;2023-04-03T08:45:38;10.00;;;4.50;;
7899;SDS011;3995;50.856;4.404;2023-04-03T08:48:12;18.75;;;5.15;;
7899;SDS011;3995;50.856;4.404;2023-04-03T08:50:46;10.95;;;4.28;;
7899;SDS011;3995;50.856;4.404;2023-04-03T08:53:17;16.35;;;3.67;;
7899;SDS011;3995;50.856;4.404;2023-04-03T08:55:47;5.35;;;3.50;;
7899;SDS011;3995;50.856;4.404;2023-04-03T08:58:18;8.48;;;4.15;;
7899;SDS011;3995;50.856;4.404;2023-04-03T09:00:48;8.43;;;4.22;;
7899;SDS011;3995;50.856;4.404;2023-04-03T09:03:18;9.55;;;4.63;;
7899;SDS011;3995;50.856;4.404;2023-04-03T09:05:48;9.13;;;4.30;;
7899;SDS011;3995;50.856;4.404;2023-04-03T09:08:23;10.23;;;4.10;;
7899;SDS011;3995;50.856;4.404;2023-04-03T09:10:57;10.80;;;3.65;;
7899;SDS011;3995;50.856;4.404;2023-04-03T09:13:31;9.88;;;3.30;;
7899;SDS011;3995;50.856;4.404;2023-04-03T09:16:03;10.07;;;3.60;;
7899;SDS011;3995;50.856;4.404;2023-04-03T09:18:44;6.65;;;3.17;;
7899;SDS011;3995;50.856;4.404;2023-04-03T09:21:17;6.93;;;3.63;;
7899;SDS011;3995;50.856;4.404;2023-04-03T09:23:51;5.93;;;3.92;;
7899;SDS011;3995;50.856;4.404;2023-04-03T09:26:22;5.55;;;3.10;;
7899;SDS011;3995;50.856;4.404;2023-04-03T09:28:55;9.75;;;3.30;;
7899;SDS011;3995;50.856;4.404;2023-04-03T09:31:26;6.00;;;2.45;;
7899;SDS011;3995;50.856;4.404;2023-04-03T09:33:56;10.77;;;3.20;;
7899;SDS011;3995;50.856;4.404;2023-04-03T09:36:38;5.47;;;2.58;;
7899;SDS011;3995;50.856;4.404;2023-04-03T09:39:10;4.72;;;2.42;;
7899;SDS011;3995;50.856;4.404;2023-04-03T09:41:39;10.68;;;3.50;;
7899;SDS011;3995;50.856;4.404;2023-04-03T09:44:22;8.23;;;2.75;;
7899;SDS011;3995;50.856;4.404;2023-04-03T09:46:50;10.45;;;2.97;;
7899;SDS011;3995;50.856;4.404;2023-04-03T09:49:18;3.65;;;2.10;;
7899;SDS011;3995;50.856;4.404;2023-04-03T09:51:48;6.18;;;2.60;;
7899;SDS011;3995;50.856;4.404;2023-04-03T09:54:33;17.52;;;3.50;;
7899;SDS011;3995;50.856;4.404;2023-04-03T09:57:06;4.25;;;2.03;;
7899;SDS011;3995;50.856;4.404;2023-04-03T09:59:38;6.03;;;2.80;;
7899;SDS011;3995;50.856;4.404;2023-04-03T10:02:28;5.13;;;2.67;;
7899;SDS011;3995;50.856;4.404;2023-04-03T10:05:00;5.00;;;2.17;;
7899;SDS011;3995;50.856;4.404;2023-04-03T10:07:30;4.82;;;2.40;;
7899;SDS011;3995;50.856;4.404;2023-04-03T10:09:59;18.58;;;2.42;;
7899;SDS011;3995;50.856;4.404;2023-04-03T10:12:28;6.13;;;2.63;;
7899;SDS011;3995;50.856;4.404;2023-04-03T10:14:57;5.75;;;2.97;;
7899;SDS011;3995;50.856;4.404;2023-04-03T10:17:32;3.80;;;2.10;;
7899;SDS011;3995;50.856;4.404;2023-04-03T10:20:10;4.40;;;2.45;;
7899;SDS011;3995;50.856;4.404;2023-04-03T10:22:56;6.15;;;2.22;;
7899;SDS011;3995;50.856;4.404;2023-04-03T10:25:32;12.80;;;3.47;;
7899;SDS011;3995;50.856;4.404;2023-04-03T10:28:07;6.63;;;2.35;;
7899;SDS011;3995;50.856;4.404;2023-04-03T10:30:45;7.38;;;2.20;;
7899;SDS011;3995;50.856;4.404;2023-04-03T10:33:19;18.08;;;2.30;;
7899;SDS011;3995;50.856;4.404;2023-04-03T10:35:56;8.27;;;2.45;;
7899;SDS011;3995;50.856;4.404;2023-04-03T10:38:36;3.42;;;2.05;;
7899;SDS011;3995;50.856;4.404;2023-04-03T10:41:10;5.65;;;2.33;;
7899;SDS011;3995;50.856;4.404;2023-04-03T10:43:43;6.97;;;2.13;;
7899;SDS011;3995;50.856;4.404;2023-04-03T10:46:20;6.07;;;2.20;;
7899;SDS011;3995;50.856;4.404;2023-04-03T10:48:58;6.63;;;2.15;;
7899;SDS011;3995;50.856;4.404;2023-04-03T10:51:37;14.60;;;2.73;;
7899;SDS011;3995;50.856;4.404;2023-04-03T10:54:11;5.30;;;1.90;;
7899;SDS011;3995;50.856;4.404;2023-04-03T10:56:40;5.60;;;2.10;;
7899;SDS011;3995;50.856;4.404;2023-04-03T10:59:14;9.03;;;2.47;;
7899;SDS011;3995;50.856;4.404;2023-04-03T11:01:49;6.93;;;2.00;;
7899;SDS011;3995;50.856;4.404;2023-04-03T11:04:20;3.67;;;1.53;;
7899;SDS011;3995;50.856;4.404;2023-04-03T11:06:51;10.00;;;2.00;;
7899;SDS011;3995;50.856;4.404;2023-04-03T11:09:25;6.43;;;2.43;;
7899;SDS011;3995;50.856;4.404;2023-04-03T11:11:55;11.40;;;2.70;;
7899;SDS011;3995;50.856;4.404;2023-04-03T11:14:27;4.13;;;2.17;;
7899;SDS011;3995;50.856;4.404;2023-04-03T11:17:04;17.23;;;2.63;;
7899;SDS011;3995;50.856;4.404;2023-04-03T11:19:39;5.03;;;1.73;;
7899;SDS011;3995;50.856;4.404;2023-04-03T11:22:13;12.77;;;2.03;;
7899;SDS011;3995;50.856;4.404;2023-04-03T11:24:51;9.50;;;2.10;;
7899;SDS011;3995;50.856;4.404;2023-04-03T11:27:23;4.30;;;2.03;;
7899;SDS011;3995;50.856;4.404;2023-04-03T11:29:52;5.77;;;1.93;;
7899;SDS011;3995;50.856;4.404;2023-04-03T11:32:32;15.13;;;3.23;;
7899;SDS011;3995;50.856;4.404;2023-04-03T11:35:14;7.13;;;2.40;;
7899;SDS011;3995;50.856;4.404;2023-04-03T11:37:45;9.60;;;2.53;;
7899;SDS011;3995;50.856;4.404;2023-04-03T11:40:22;6.40;;;2.30;;
7899;SDS011;3995;50.856;4.404;2023-04-03T11:42:52;10.37;;;2.97;;
7899;SDS011;3995;50.856;4.404;2023-04-03T11:45:27;3.40;;;2.00;;
7899;SDS011;3995;50.856;4.404;2023-04-03T11:57:22;12.57;;;2.73;;
7899;SDS011;3995;50.856;4.404;2023-04-03T12:03:29;6.43;;;2.30;;
7899;SDS011;3995;50.856;4.404;2023-04-03T12:09:24;3.80;;;1.90;;
7899;SDS011;3995;50.856;4.404;2023-04-03T12:11:54;9.80;;;2.73;;
7899;SDS011;3995;50.856;4.404;2023-04-03T12:14:23;7.33;;;2.80;;
7899;SDS011;3995;50.856;4.404;2023-04-03T12:16:52;3.00;;;1.93;;
7899;SDS011;3995;50.856;4.404;2023-04-03T12:22:13;9.57;;;2.10;;
7899;SDS011;3995;50.856;4.404;2023-04-03T12:24:46;5.00;;;2.30;;
7899;SDS011;3995;50.856;4.404;2023-04-03T12:27:22;11.03;;;2.10;;
7899;SDS011;3995;50.856;4.404;2023-04-03T12:29:53;7.23;;;1.83;;
7899;SDS011;3995;50.856;4.404;2023-04-03T12:35:39;8.80;;;2.73;;
7899;SDS011;3995;50.856;4.404;2023-04-03T12:38:23;15.63;;;2.50;;
7899;SDS011;3995;50.856;4.404;2023-04-03T12:46:53;10.07;;;2.20;;
7899;SDS011;3995;50.856;4.404;2023-04-03T12:49:29;11.43;;;2.40;;
7899;SDS011;3995;50.856;4.404;2023-04-03T12:52:03;5.93;;;1.80;;
7899;SDS011;3995;50.856;4.404;2023-04-03T12:54:34;3.90;;;1.80;;
7899;SDS011;3995;50.856;4.404;2023-04-03T12:57:11;6.20;;;1.87;;
7899;SDS011;3995;50.856;4.404;2023-04-03T12:59:39;5.33;;;1.70;;
7899;SDS011;3995;50.856;4.404;2023-04-03T13:02:10;15.80;;;2.70;;
7899;SDS011;3995;50.856;4.404;2023-04-03T13:04:53;7.50;;;1.93;;
7899;SDS011;3995;50.856;4.404;2023-04-03T13:07:23;4.43;;;2.20;;
7899;SDS011;3995;50.856;4.404;2023-04-03T13:09:57;9.20;;;2.10;;
7899;SDS011;3995;50.856;4.404;2023-04-03T13:12:27;11.10;;;2.50;;
7899;SDS011;3995;50.856;4.404;2023-04-03T13:14:56;3.17;;;1.60;;
7899;SDS011;3995;50.856;4.404;2023-04-03T13:17:25;6.33;;;1.70;;
7899;SDS011;3995;50.856;4.404;2023-04-03T13:19:53;7.37;;;2.20;;
7899;SDS011;3995;50.856;4.404;2023-04-03T13:22:25;12.57;;;2.00;;
7899;SDS011;3995;50.856;4.404;2023-04-03T13:24:56;10.23;;;3.50;;
7899;SDS011;3995;50.856;4.404;2023-04-03T13:27:29;6.13;;;1.73;;
7899;SDS011;3995;50.856;4.404;2023-04-03T13:29:57;8.63;;;2.70;;
7899;SDS011;3995;50.856;4.404;2023-04-03T13:32:28;31.37;;;2.77;;
7899;SDS011;3995;50.856;4.404;2023-04-03T13:34:56;4.90;;;2.03;;
7899;SDS011;3995;50.856;4.404;2023-04-03T13:37:26;10.20;;;2.00;;
7899;SDS011;3995;50.856;4.404;2023-04-03T13:39:58;5.77;;;1.97;;
7899;SDS011;3995;50.856;4.404;2023-04-03T13:42:29;4.30;;;1.80;;
7899;SDS011;3995;50.856;4.404;2023-04-03T13:45:09;16.43;;;2.20;;
7899;SDS011;3995;50.856;4.404;2023-04-03T13:47:43;10.23;;;2.33;;
7899;SDS011;3995;50.856;4.404;2023-04-03T13:50:15;7.63;;;2.43;;
7899;SDS011;3995;50.856;4.404;2023-04-03T13:52:45;6.90;;;2.17;;
7899;SDS011;3995;50.856;4.404;2023-04-03T13:55:16;8.73;;;2.27;;
7899;SDS011;3995;50.856;4.404;2023-04-03T13:57:52;8.40;;;2.30;;
7899;SDS011;3995;50.856;4.404;2023-04-03T14:00:33;8.60;;;2.07;;
7899;SDS011;3995;50.856;4.404;2023-04-03T14:03:11;8.40;;;2.03;;
7899;SDS011;3995;50.856;4.404;2023-04-03T14:05:40;11.97;;;2.70;;
7899;SDS011;3995;50.856;4.404;2023-04-03T14:08:07;7.63;;;1.93;;
7899;SDS011;3995;50.856;4.404;2023-04-03T14:10:35;3.67;;;1.93;;
7899;SDS011;3995;50.856;4.404;2023-04-03T14:13:04;2.73;;;1.80;;
7899;SDS011;3995;50.856;4.404;2023-04-03T14:15:31;3.67;;;1.80;;
7899;SDS011;3995;50.856;4.404;2023-04-03T14:17:59;9.00;;;2.40;;
7899;SDS011;3995;50.856;4.404;2023-04-03T14:20:27;7.20;;;2.30;;
7899;SDS011;3995;50.856;4.404;2023-04-03T14:22:54;3.17;;;1.50;;
7899;SDS011;3995;50.856;4.404;2023-04-03T14:25:22;3.33;;;1.80;;
7899;SDS011;3995;50.856;4.404;2023-04-03T14:27:51;7.30;;;1.77;;
7899;SDS011;3995;50.856;4.404;2023-04-03T14:30:22;8.33;;;2.70;;
7899;SDS011;3995;50.856;4.404;2023-04-03T14:32:52;8.63;;;2.20;;
7899;SDS011;3995;50.856;4.404;2023-04-03T14:35:23;7.60;;;1.50;;
7899;SDS011;3995;50.856;4.404;2023-04-03T14:37:51;5.33;;;2.30;;
7899;SDS011;3995;50.856;4.404;2023-04-03T14:40:22;6.17;;;1.67;;
7899;SDS011;3995;50.856;4.404;2023-04-03T14:42:51;9.43;;;1.97;;
7899;SDS011;3995;50.856;4.404;2023-04-03T14:45:21;3.93;;;2.07;;
7899;SDS011;3995;50.856;4.404;2023-04-03T14:47:50;5.00;;;1.73;;
7899;SDS011;3995;50.856;4.404;2023-04-03T14:50:21;2.87;;;2.00;;
7899;SDS011;3995;50.856;4.404;2023-04-03T14:52:51;14.73;;;2.40;;
7899;SDS011;3995;50.856;4.404;2023-04-03T14:55:20;5.93;;;2.00;;
7899;SDS011;3995;50.856;4.404;2023-04-03T14:57:49;7.77;;;2.43;;
7899;SDS011;3995;50.856;4.404;2023-04-03T15:00:18;8.23;;;1.87;;
7899;SDS011;3995;50.856;4.404;2023-04-03T15:02:48;10.07;;;2.30;;
7899;SDS011;3995;50.856;4.404;2023-04-03T15:05:16;12.98;;;1.80;;
7899;SDS011;3995;50.856;4.404;2023-04-03T15:07:45;17.87;;;2.47;;
7899;SDS011;3995;50.856;4.404;2023-04-03T15:10:17;6.57;;;2.57;;
7899;SDS011;3995;50.856;4.404;2023-04-03T15:12:46;9.30;;;1.80;;
7899;SDS011;3995;50.856;4.404;2023-04-03T15:15:14;4.73;;;1.67;;
7899;SDS011;3995;50.856;4.404;2023-04-03T15:17:45;4.60;;;1.53;;
7899;SDS011;3995;50.856;4.404;2023-04-03T15:20:15;1.67;;;1.27;;
7899;SDS011;3995;50.856;4.404;2023-04-03T15:22:44;3.10;;;1.50;;
7899;SDS011;3995;50.856;4.404;2023-04-03T15:25:12;5.97;;;1.50;;
7899;SDS011;3995;50.856;4.404;2023-04-03T15:27:39;6.67;;;1.70;;
7899;SDS011;3995;50.856;4.404;2023-04-03T15:30:08;3.50;;;2.10;;
7899;SDS011;3995;50.856;4.404;2023-04-03T15:32:39;4.20;;;2.00;;
7899;SDS011;3995;50.856;4.404;2023-04-03T15:35:06;6.75;;;1.92;;
7899;SDS011;3995;50.856;4.404;2023-04-03T15:37:35;6.80;;;1.90;;
7899;SDS011;3995;50.856;4.404;2023-04-03T15:40:03;2.47;;;1.40;;
7899;SDS011;3995;50.856;4.404;2023-04-03T15:42:31;4.93;;;1.70;;
7899;SDS011;3995;50.856;4.404;2023-04-03T15:44:58;8.10;;;1.80;;
7899;SDS011;3995;50.856;4.404;2023-04-03T15:47:26;4.23;;;1.70;;
7899;SDS011;3995;50.856;4.404;2023-04-03T15:49:53;2.40;;;1.47;;
7899;SDS011;3995;50.856;4.404;2023-04-03T15:52:22;2.70;;;1.37;;
7899;SDS011;3995;50.856;4.404;2023-04-03T15:54:50;9.83;;;2.73;;
7899;SDS011;3995;50.856;4.404;2023-04-03T15:57:18;4.20;;;2.03;;
7899;SDS011;3995;50.856;4.404;2023-04-03T15:59:50;13.30;;;2.43;;
7899;SDS011;3995;50.856;4.404;2023-04-03T16:02:18;5.23;;;2.17;;